Time;durP1;ratioP1;P1;durP2;ratioP2;P2;SDS_P1;SDS_P2;PMS_P1;PMS_P2;Temp;Humidity;BMP_temperature;BMP_pressure;BME280_temperature;BME280_humidity;BME280_pressure;Samples;Min_cycle;Max_cycle;Signal;HPM_P1;HPM_P2
2021/12/23 00:00:08;;;;;;;68.05;31.20;;;;;;;-3.52;75.36;99982.28;344844;28;1577;-65
2021/12/23 00:00:20;;;;;;;68.88;31.55;;;;;;;-3.53;75.25;99983.97;345038;28;953;-65
2021/12/23 00:00:34;;;;;;;64.28;31.90;;;;;;;-3.48;74.66;99979.00;344970;28;1343;-65
2021/12/23 00:00:46;;;;;;;66.13;31.10;;;;;;;-3.53;74.93;99988.19;344921;28;1370;-65
2021/12/23 00:00:58;;;;;;;66.60;30.98;;;;;;;-3.52;74.92;99985.72;344647;28;1276;-65
2021/12/23 00:01:11;;;;;;;66.90;31.35;;;;;;;-3.54;75.17;99984.81;344951;28;1095;-65
2021/12/23 00:01:23;;;;;;;62.83;30.90;;;;;;;-3.54;74.58;99979.72;344384;28;1745;-65
2021/12/23 00:01:36;;;;;;;61.90;31.13;;;;;;;-3.51;74.55;99976.41;344077;28;1946;-65
2021/12/23 00:01:49;;;;;;;65.03;32.22;;;;;;;-3.53;74.61;99970.41;344928;28;5016;-65
2021/12/23 00:02:01;;;;;;;67.85;33.67;;;;;;;-3.52;74.34;99972.13;344859;28;1354;-65
2021/12/23 00:02:13;;;;;;;64.18;32.20;;;;;;;-3.50;74.29;99973.91;342936;28;5325;-65
2021/12/23 00:02:25;;;;;;;64.38;31.70;;;;;;;-3.52;74.30;99972.13;343463;28;1209;-65
2021/12/23 00:02:38;;;;;;;65.82;31.38;;;;;;;-3.51;73.70;99976.41;343450;28;1270;-65
2021/12/23 00:02:51;;;;;;;65.32;31.77;;;;;;;-3.55;73.51;99966.97;343182;28;5397;-65
2021/12/23 00:03:03;;;;;;;66.55;31.77;;;;;;;-3.51;73.67;99973.84;343281;28;1331;-65
2021/12/23 00:03:16;;;;;;;64.93;31.75;;;;;;;-3.52;72.87;99969.59;343359;28;1062;-65
2021/12/23 00:03:28;;;;;;;65.97;30.35;;;;;;;-3.53;73.10;99978.03;343442;28;5085;-65
2021/12/23 00:03:40;;;;;;;64.55;30.10;;;;;;;-3.54;72.17;99971.22;343571;28;1066;-65
2021/12/23 00:03:52;;;;;;;66.50;30.30;;;;;;;-3.57;72.08;99966.06;344392;28;1069;-65
2021/12/23 00:04:04;;;;;;;64.70;30.40;;;;;;;-3.57;72.54;99973.69;344428;28;1312;-65
2021/12/23 00:04:16;;;;;;;66.28;30.20;;;;;;;-3.54;72.03;99971.22;344849;28;1228;-65
2021/12/23 00:04:28;;;;;;;65.28;30.35;;;;;;;-3.54;71.69;99967.00;344892;28;1108;-65
2021/12/23 00:04:40;;;;;;;64.72;30.73;;;;;;;-3.56;71.89;99973.72;344944;28;1248;-65
2021/12/23 00:04:52;;;;;;;62.53;30.75;;;;;;;-3.52;71.81;99974.66;344968;28;1058;-65
2021/12/23 00:05:07;;;;;;;61.55;31.83;;;;;;;-3.56;71.42;99972.84;344278;28;1636;-65
2021/12/23 00:05:19;;;;;;;62.90;31.90;;;;;;;-3.60;71.25;99977.00;344420;28;5053;-65
2021/12/23 00:05:31;;;;;;;63.80;30.83;;;;;;;-3.62;71.47;99971.88;344854;28;1478;-65
2021/12/23 00:05:43;;;;;;;62.20;29.10;;;;;;;-3.65;71.63;99973.44;344973;28;1086;-65
2021/12/23 00:05:55;;;;;;;61.65;29.80;;;;;;;-3.65;71.77;99973.44;344956;28;1384;-65
2021/12/23 00:06:07;;;;;;;61.40;30.73;;;;;;;-3.65;71.08;99973.44;343622;28;1107;-65
2021/12/23 00:06:19;;;;;;;60.60;31.35;;;;;;;-3.66;71.22;99975.13;343537;28;1117;-65
2021/12/23 00:06:31;;;;;;;59.55;30.77;;;;;;;-3.71;71.11;99979.19;343488;28;1099;-65
2021/12/23 00:06:46;;;;;;;58.70;30.15;;;;;;;-3.69;71.30;99971.63;343539;28;1062;-65
2021/12/23 00:06:58;;;;;;;59.80;29.67;;;;;;;-3.71;71.08;99974.13;343607;28;5192;-65
2021/12/23 00:07:10;;;;;;;59.30;29.30;;;;;;;-3.74;71.15;99976.59;344799;28;1445;-65
2021/12/23 00:07:22;;;;;;;56.44;28.94;;;;;;;-3.75;71.38;99976.53;344367;28;1766;-65
2021/12/23 00:07:34;;;;;;;57.55;29.23;;;;;;;-3.78;71.90;99977.31;344895;28;1110;-65
2021/12/23 00:07:46;;;;;;;58.13;29.27;;;;;;;-3.79;71.67;99975.56;344932;28;1094;-65
2021/12/23 00:08:01;;;;;;;58.05;29.42;;;;;;;-3.78;72.05;99977.31;344809;28;1311;-65
2021/12/23 00:08:13;;;;;;;57.78;31.00;;;;;;;-3.78;71.77;99977.31;344666;28;4989;-65
2021/12/23 00:08:25;;;;;;;59.28;30.67;;;;;;;-3.79;72.07;99978.13;345069;28;1062;-65
2021/12/23 00:08:37;;;;;;;59.72;29.33;;;;;;;-3.81;72.04;99972.13;344876;28;5462;-65
2021/12/23 00:08:49;;;;;;;59.90;28.27;;;;;;;-3.79;72.47;99975.56;345208;28;1236;-65
2021/12/23 00:09:03;;;;;;;59.75;28.05;;;;;;;-3.82;72.91;99981.44;344923;28;1332;-65
2021/12/23 00:09:16;;;;;;;58.15;28.20;;;;;;;-3.81;73.46;99977.22;344649;28;5692;-65
2021/12/23 00:09:53;;;;;;;56.30;29.40;;;;;;;-3.80;73.70;99976.41;345038;28;1603;-65
2021/12/23 00:10:15;;;;;;;56.36;27.64;;;;;;;-3.75;73.83;99966.38;343794;28;1793;-65
2021/12/23 00:10:27;;;;;;;56.85;28.00;;;;;;;-3.72;74.00;99972.41;344815;28;1041;-65
2021/12/23 00:10:40;;;;;;;60.53;29.38;;;;;;;-3.71;74.15;99969.03;343664;28;1074;-65
2021/12/23 00:10:52;;;;;;;61.03;29.77;;;;;;;-3.70;73.76;99975.88;343857;28;1314;-65
2021/12/23 00:11:04;;;;;;;59.95;30.08;;;;;;;-3.69;73.81;99969.94;344503;28;1211;-65
2021/12/23 00:11:16;;;;;;;54.03;27.42;;;;;;;-3.69;74.42;99972.50;343721;28;1330;-65
2021/12/23 00:11:28;;;;;;;54.55;27.58;;;;;;;-3.68;74.51;99971.69;343454;28;1111;-65
2021/12/23 00:11:40;;;;;;;56.38;28.15;;;;;;;-3.68;74.78;99974.22;343440;28;1303;-65
2021/12/23 00:11:52;;;;;;;57.95;29.15;;;;;;;-3.65;74.53;99971.75;343720;28;1344;-65
2021/12/23 00:12:05;;;;;;;60.00;30.70;;;;;;;-3.61;74.63;99970.19;344144;28;1544;-65
2021/12/23 00:12:18;;;;;;;60.45;29.88;;;;;;;-3.62;74.53;99971.88;344267;28;2179;-65
2021/12/23 00:12:31;;;;;;;59.67;29.05;;;;;;;-3.58;74.75;99964.31;344756;28;1324;-65
2021/12/23 00:12:45;;;;;;;57.58;28.50;;;;;;;-3.56;74.41;99972.84;344648;28;1507;-65
2021/12/23 00:12:57;;;;;;;62.05;30.05;;;;;;;-3.55;74.54;99969.50;344716;28;4970;-65
2021/12/23 00:13:09;;;;;;;62.25;30.98;;;;;;;-3.54;74.69;99961.06;344747;28;1101;-65
2021/12/23 00:13:22;;;;;;;60.80;29.80;;;;;;;-3.53;74.86;99965.34;344548;28;1114;-65
2021/12/23 00:13:35;;;;;;;57.63;27.58;;;;;;;-3.54;74.61;99967.00;344544;28;1090;-65
2021/12/23 00:14:03;;;;;;;57.20;28.38;;;;;;;-3.52;74.84;99965.38;344124;28;5648;-65
2021/12/23 00:14:15;;;;;;;60.30;31.10;;;;;;;-3.48;74.46;99962.09;343300;28;1316;-65
2021/12/23 00:14:27;;;;;;;59.10;30.48;;;;;;;-3.49;74.66;99956.97;344790;28;1254;-65
2021/12/23 00:14:39;;;;;;;57.13;28.92;;;;;;;-3.50;74.66;99963.75;344569;28;1071;-65
2021/12/23 00:14:52;;;;;;;57.08;29.40;;;;;;;-3.51;74.33;99956.06;344674;28;1058;-65
2021/12/23 00:15:09;;;;;;;60.60;29.55;;;;;;;-3.50;74.40;99957.78;345694;28;5100;-65
2021/12/23 00:16:17;;;;;;;52.63;27.02;;;;;;;-3.48;74.46;99953.59;344523;28;5643;-65
2021/12/23 00:16:42;;;;;;;55.97;29.13;;;;;;;-3.50;74.63;99961.22;343427;28;1079;-65
2021/12/23 00:17:18;;;;;;;55.80;27.80;;;;;;;-3.56;74.88;99955.06;343099;28;5384;-65
2021/12/23 00:18:29;;;;;;;55.78;29.50;;;;;;;-3.61;75.22;99958.34;344731;28;5548;-65
2021/12/23 00:18:56;;;;;;;54.60;28.45;;;;;;;-3.62;74.58;99954.09;344894;28;5215;-65
2021/12/23 00:19:47;;;;;;;55.92;29.05;;;;;;;-3.61;74.52;99950.72;344717;28;1542;-65
2021/12/23 00:19:59;;;;;;;54.47;28.25;;;;;;;-3.63;73.49;99956.56;343219;28;5646;-65
2021/12/23 00:23:28;;;;;;;51.72;27.25;;;;;;;-3.75;72.65;99956.22;343839;28;1121;-65
2021/12/23 00:23:44;;;;;;;56.63;29.42;;;;;;;-3.76;73.13;99949.41;344953;28;1128;-65
2021/12/23 00:23:58;;;;;;;57.92;28.85;;;;;;;-3.79;72.47;99945.09;344804;28;1258;-65
2021/12/23 00:24:10;;;;;;;56.70;28.55;;;;;;;-3.78;72.71;99948.50;345104;28;1074;-65
2021/12/23 00:24:22;;;;;;;55.53;28.52;;;;;;;-3.80;72.90;99948.47;344325;28;2318;-65
2021/12/23 00:24:34;;;;;;;52.10;26.80;;;;;;;-3.82;72.65;99945.03;344680;28;1019;-65
2021/12/23 00:24:46;;;;;;;51.85;27.00;;;;;;;-3.81;72.21;99946.72;344852;28;1197;-65
2021/12/23 00:24:58;;;;;;;52.58;27.33;;;;;;;-3.82;71.99;99950.94;344838;28;1306;-65
2021/12/23 00:25:10;;;;;;;55.45;29.35;;;;;;;-3.81;72.56;99946.72;344886;28;1055;-65
2021/12/23 00:25:22;;;;;;;55.33;28.27;;;;;;;-3.82;71.98;99945.03;344719;28;1054;-65
2021/12/23 00:25:34;;;;;;;54.13;27.40;;;;;;;-3.85;71.86;99945.75;345792;28;2515;-64
2021/12/23 00:25:47;;;;;;;56.03;28.13;;;;;;;-3.82;71.89;99945.88;346085;28;1079;-65
2021/12/23 00:26:01;;;;;;;54.28;27.92;;;;;;;-3.86;72.20;99949.13;345842;28;4997;-65
2021/12/23 00:26:13;;;;;;;51.78;26.83;;;;;;;-3.84;72.42;99951.72;344981;28;9274;-65
2021/12/23 00:26:26;;;;;;;55.08;27.48;;;;;;;-3.81;71.89;99951.81;344602;28;1030;-65
2021/12/23 00:26:38;;;;;;;57.30;28.15;;;;;;;-3.83;72.16;99955.97;344841;28;1208;-65
2021/12/23 00:26:50;;;;;;;53.63;27.25;;;;;;;-3.81;72.44;99954.34;344809;28;1102;-65
2021/12/23 00:27:03;;;;;;;52.63;27.30;;;;;;;-3.80;72.94;99953.53;344745;28;1296;-65
2021/12/23 00:27:15;;;;;;;54.25;27.67;;;;;;;-3.78;73.28;99946.84;344857;28;1074;-65
2021/12/23 00:27:27;;;;;;;53.67;27.33;;;;;;;-3.79;73.77;99949.31;344809;28;1078;-65
2021/12/23 00:27:39;;;;;;;52.28;27.58;;;;;;;-3.78;73.75;99941.75;344749;28;1141;-65
2021/12/23 00:27:51;;;;;;;51.45;28.27;;;;;;;-3.75;73.87;99949.44;344810;28;1107;-64
2021/12/23 00:28:03;;;;;;;50.17;27.73;;;;;;;-3.70;73.76;99944.50;344712;28;1175;-65
2021/12/23 00:28:16;;;;;;;48.72;26.73;;;;;;;-3.69;73.54;99947.09;344361;28;5319;-65
2021/12/23 00:28:30;;;;;;;49.83;26.23;;;;;;;-3.69;74.39;99947.09;344634;28;1063;-65
2021/12/23 00:28:42;;;;;;;53.90;27.42;;;;;;;-3.67;74.22;99947.13;344734;28;5001;-65
2021/12/23 00:28:55;;;;;;;53.60;27.75;;;;;;;-3.64;74.42;99945.56;344623;28;1287;-65
2021/12/23 00:29:07;;;;;;;53.67;28.52;;;;;;;-3.63;74.49;99947.25;344554;28;1191;-65
2021/12/23 00:29:20;;;;;;;53.05;27.98;;;;;;;-3.59;74.34;99944.81;344473;28;5044;-65
2021/12/23 00:29:32;;;;;;;49.15;26.52;;;;;;;-3.57;74.22;99940.66;344462;28;1058;-65
2021/12/23 00:29:44;;;;;;;48.83;25.65;;;;;;;-3.56;73.80;99937.28;343329;28;1314;-65
2021/12/23 00:29:56;;;;;;;50.92;26.42;;;;;;;-3.54;74.39;99940.72;343307;28;1328;-65
2021/12/23 00:30:09;;;;;;;53.78;28.08;;;;;;;-3.51;74.40;99943.38;343323;28;1163;-65
2021/12/23 00:30:21;;;;;;;57.83;29.60;;;;;;;-3.49;74.48;99939.19;343477;28;5238;-65
2021/12/23 00:30:33;;;;;;;56.35;28.58;;;;;;;-3.51;74.63;99940.81;343175;28;1082;-65
2021/12/23 00:30:45;;;;;;;53.08;26.60;;;;;;;-3.48;74.53;99940.91;343243;28;928;-65
2021/12/23 00:30:59;;;;;;;51.88;27.15;;;;;;;-3.45;74.40;99941.00;343816;28;1290;-65
2021/12/23 00:31:11;;;;;;;51.30;27.67;;;;;;;-3.46;74.56;99939.25;344348;28;4955;-65
2021/12/23 00:31:23;;;;;;;51.35;28.00;;;;;;;-3.44;74.72;99937.63;344177;28;4819;-65
2021/12/23 00:31:35;;;;;;;52.75;28.10;;;;;;;-3.43;74.41;99939.34;344512;28;1232;-65
2021/12/23 00:31:48;;;;;;;53.97;27.15;;;;;;;-3.41;74.53;99937.72;345205;28;1030;-65
2021/12/23 00:32:04;;;;;;;51.95;26.75;;;;;;;-3.41;74.50;99942.81;345781;28;1208;-65
2021/12/23 00:32:16;;;;;;;52.65;27.85;;;;;;;-3.43;74.42;99934.28;345729;28;1331;-65
2021/12/23 00:32:28;;;;;;;54.78;28.75;;;;;;;-3.44;74.80;99933.44;345842;28;1094;-65
2021/12/23 00:32:40;;;;;;;55.88;29.13;;;;;;;-3.46;74.22;99934.19;345192;28;2028;-65
2021/12/23 00:32:54;;;;;;;56.95;28.88;;;;;;;-3.47;74.31;99932.47;345826;28;1998;-65
2021/12/23 00:33:07;;;;;;;55.33;27.52;;;;;;;-3.49;74.46;99929.03;344531;28;1392;-65
2021/12/23 00:33:22;;;;;;;53.85;27.27;;;;;;;-3.50;74.62;99937.44;344629;28;1343;-65
2021/12/23 00:33:36;;;;;;;55.17;28.27;;;;;;;-3.49;74.71;99934.09;344361;28;5120;-65
2021/12/23 00:33:48;;;;;;;56.65;29.25;;;;;;;-3.47;74.45;99932.47;343977;28;5545;-65
2021/12/23 00:34:00;;;;;;;57.80;30.05;;;;;;;-3.47;74.48;99930.78;343143;28;1423;-64
2021/12/23 00:34:13;;;;;;;56.17;28.45;;;;;;;-3.45;74.43;99935.91;344766;28;1334;-65
2021/12/23 00:34:26;;;;;;;53.40;27.02;;;;;;;-3.47;74.62;99932.47;344592;28;1327;-65
2021/12/23 00:34:38;;;;;;;51.78;27.98;;;;;;;-3.48;74.40;99931.63;344716;28;1207;-65
2021/12/23 00:34:50;;;;;;;53.47;27.63;;;;;;;-3.49;74.68;99939.19;344802;28;1046;-65
2021/12/23 00:35:06;;;;;;;54.47;27.80;;;;;;;-3.47;74.16;99932.47;344661;28;1346;-65
2021/12/23 00:35:19;;;;;;;53.97;27.40;;;;;;;-3.47;74.21;99932.47;344583;28;1056;-64
2021/12/23 00:35:31;;;;;;;55.25;28.17;;;;;;;-3.46;74.48;99929.09;344924;28;1098;-65
2021/12/23 00:35:43;;;;;;;53.38;29.10;;;;;;;-3.43;74.28;99929.19;344939;28;1106;-65
2021/12/23 00:35:56;;;;;;;51.53;28.50;;;;;;;-3.45;74.34;99926.59;344809;28;1491;-65
2021/12/23 00:36:11;;;;;;;52.35;27.38;;;;;;;-3.41;73.85;99937.72;344877;28;4989;-65
2021/12/23 00:36:23;;;;;;;51.58;27.40;;;;;;;-3.44;74.10;99927.47;344039;28;5225;-65
2021/12/23 00:36:36;;;;;;;52.30;27.75;;;;;;;-3.44;73.59;99930.00;344630;28;1188;-65
2021/12/23 00:36:49;;;;;;;53.75;28.92;;;;;;;-3.44;73.52;99928.34;344620;28;4881;-65
2021/12/23 00:37:03;;;;;;;53.47;27.33;;;;;;;-3.47;73.72;99927.38;345294;28;5703;-65
2021/12/23 00:37:17;;;;;;;54.90;26.52;;;;;;;-3.47;73.47;99922.31;346064;28;1070;-65
2021/12/23 00:37:36;;;;;;;56.85;26.80;;;;;;;-3.45;73.70;99923.22;346117;28;1058;-65
2021/12/23 00:37:50;;;;;;;54.95;28.35;;;;;;;-3.42;73.44;99925.81;346090;28;4971;-65
2021/12/23 00:38:11;;;;;;;56.25;29.40;;;;;;;-3.39;73.12;99927.59;345038;28;4807;-65
2021/12/23 00:38:31;;;;;;;53.83;28.13;;;;;;;-3.39;73.49;99925.91;344718;28;1248;-65
2021/12/23 00:38:48;;;;;;;54.17;27.17;;;;;;;-3.45;73.00;99923.22;344602;28;4966;-65
2021/12/23 00:39:02;;;;;;;52.20;26.65;;;;;;;-3.48;72.23;99915.47;344523;28;5490;-65
2021/12/23 00:39:16;;;;;;;52.40;26.83;;;;;;;-3.49;72.24;99923.94;344791;28;4927;-65
2021/12/23 00:39:29;;;;;;;52.15;27.23;;;;;;;-3.48;72.35;99920.56;345760;28;5375;-65
2021/12/23 00:39:41;;;;;;;54.80;28.27;;;;;;;-3.47;71.77;99922.31;345651;28;4917;-65
2021/12/23 00:39:53;;;;;;;54.80;28.20;;;;;;;-3.48;72.13;99923.09;345907;28;1038;-65
2021/12/23 00:40:08;;;;;;;53.63;27.55;;;;;;;-3.48;71.66;99920.56;345543;28;1266;-65
2021/12/23 00:40:20;;;;;;;51.45;26.60;;;;;;;-3.50;72.16;99919.66;345684;28;1070;-65
2021/12/23 00:40:32;;;;;;;50.80;26.13;;;;;;;-3.50;71.63;99919.66;345950;28;1094;-65
2021/12/23 00:40:44;;;;;;;50.38;26.02;;;;;;;-3.50;71.86;99922.19;345904;28;1019;-65
2021/12/23 00:41:01;;;;;;;50.38;25.52;;;;;;;-3.54;71.59;99917.84;346167;28;1374;-65
2021/12/23 00:41:14;;;;;;;50.67;26.73;;;;;;;-3.54;71.73;99920.41;346004;28;1082;-65
2021/12/23 00:41:30;;;;;;;50.67;27.50;;;;;;;-3.55;70.83;99919.53;345373;28;1742;-64
2021/12/23 00:41:44;;;;;;;48.60;25.55;;;;;;;-3.55;71.57;99913.59;345595;28;1871;-65
2021/12/23 00:42:05;;;;;;;47.42;24.73;;;;;;;-3.58;71.57;99923.66;346055;28;2128;-64
2021/12/23 00:42:18;;;;;;;49.45;27.08;;;;;;;-3.54;71.17;99916.19;345551;28;1860;-65
2021/12/23 00:42:32;;;;;;;51.63;27.83;;;;;;;-3.58;71.40;99919.47;344592;28;4974;-65
2021/12/23 00:42:44;;;;;;;51.10;26.92;;;;;;;-3.61;71.43;99920.22;344530;28;5452;-65
2021/12/23 00:42:56;;;;;;;50.05;25.95;;;;;;;-3.61;71.30;99915.13;345641;28;1184;-65
2021/12/23 00:43:08;;;;;;;49.30;26.52;;;;;;;-3.62;71.05;99913.44;344879;28;1027;-65
2021/12/23 00:43:21;;;;;;;49.60;27.40;;;;;;;-3.61;70.99;99909.19;344894;28;1083;-65
2021/12/23 00:43:33;;;;;;;52.17;27.85;;;;;;;-3.64;71.44;99909.13;344664;28;4985;-65
2021/12/23 00:43:46;;;;;;;52.35;26.83;;;;;;;-3.68;70.83;99918.34;344672;28;5199;-65
2021/12/23 00:43:59;;;;;;;52.47;27.27;;;;;;;-3.65;70.87;99912.47;344771;28;1399;-65
2021/12/23 00:44:13;;;;;;;52.95;28.08;;;;;;;-3.65;70.79;99907.41;344618;28;5661;-65
2021/12/23 00:44:25;;;;;;;50.90;26.80;;;;;;;-3.70;70.86;99909.81;344597;28;5003;-65
2021/12/23 00:44:40;;;;;;;50.22;25.50;;;;;;;-3.74;70.68;99908.00;345078;28;1184;-65
2021/12/23 00:44:52;;;;;;;51.28;26.40;;;;;;;-3.76;71.04;99913.84;344840;28;1008;-65
2021/12/23 00:45:05;;;;;;;49.55;26.20;;;;;;;-3.76;70.98;99909.63;344965;28;1181;-65
2021/12/23 00:45:17;;;;;;;47.15;25.95;;;;;;;-3.76;71.10;99907.09;344502;28;5176;-64
2021/12/23 00:45:29;;;;;;;47.17;25.92;;;;;;;-3.76;71.14;99909.63;344858;28;1018;-65
2021/12/23 00:45:41;;;;;;;49.97;26.20;;;;;;;-3.77;71.39;99907.91;344954;28;1074;-65
2021/12/23 00:45:53;;;;;;;51.85;26.13;;;;;;;-3.75;71.11;99906.25;344831;28;1094;-65
2021/12/23 00:46:05;;;;;;;52.45;27.50;;;;;;;-3.76;71.27;99908.75;344806;28;1989;-65
2021/12/23 00:46:18;;;;;;;50.15;26.85;;;;;;;-3.76;71.28;99904.56;344844;28;4873;-65
2021/12/23 00:46:30;;;;;;;49.03;27.02;;;;;;;-3.77;71.53;99905.34;344490;28;2612;-65
2021/12/23 00:46:42;;;;;;;49.90;28.13;;;;;;;-3.78;71.29;99906.19;345837;28;1326;-65
2021/12/23 00:46:54;;;;;;;51.03;27.27;;;;;;;-3.81;70.78;99906.09;346117;28;1039;-65
2021/12/23 00:47:06;;;;;;;49.13;25.10;;;;;;;-3.80;71.29;99912.91;346066;28;1047;-65
2021/12/23 00:47:18;;;;;;;48.42;24.88;;;;;;;-3.84;71.47;99911.94;346140;28;1152;-65
2021/12/23 00:47:30;;;;;;;50.22;26.58;;;;;;;-3.81;71.14;99906.94;346038;28;1015;-65
2021/12/23 00:47:42;;;;;;;51.40;27.08;;;;;;;-3.80;71.04;99907.81;346163;28;1065;-65
2021/12/23 00:47:54;;;;;;;50.83;26.13;;;;;;;-3.81;70.80;99911.16;345949;28;1241;-65
2021/12/23 00:48:06;;;;;;;48.55;25.65;;;;;;;-3.78;71.03;99906.19;344740;28;1018;-65
2021/12/23 00:48:18;;;;;;;49.10;25.90;;;;;;;-3.83;70.75;99910.25;345615;28;1512;-65
2021/12/23 00:48:31;;;;;;;51.05;25.88;;;;;;;-3.84;71.06;99903.47;345840;28;1018;-65
2021/12/23 00:48:43;;;;;;;51.50;26.23;;;;;;;-3.82;70.75;99904.38;345718;28;5056;-65
2021/12/23 00:48:55;;;;;;;53.45;26.92;;;;;;;-3.81;71.03;99906.09;344955;28;1180;-65
2021/12/23 00:49:08;;;;;;;54.35;26.73;;;;;;;-3.81;71.24;99906.09;343687;28;1074;-65
2021/12/23 00:49:21;;;;;;;54.60;26.42;;;;;;;-3.80;71.45;99897.66;343729;28;5476;-65
2021/12/23 00:49:33;;;;;;;52.75;25.95;;;;;;;-3.80;71.95;99897.66;343521;28;1137;-65
2021/12/23 00:49:45;;;;;;;53.00;26.08;;;;;;;-3.81;71.83;99901.00;343504;28;1107;-65
2021/12/23 00:49:57;;;;;;;50.25;25.60;;;;;;;-3.80;72.27;99902.75;343594;28;1080;-65
2021/12/23 00:50:09;;;;;;;47.70;26.35;;;;;;;-3.78;72.33;99893.50;343640;28;1072;-65
2021/12/23 00:50:21;;;;;;;49.13;26.92;;;;;;;-3.78;72.83;99896.03;343670;28;1687;-65
2021/12/23 00:50:33;;;;;;;49.90;27.15;;;;;;;-3.75;72.53;99903.72;343603;28;1309;-65
2021/12/23 00:50:47;;;;;;;48.22;25.33;;;;;;;-3.78;71.65;99898.56;343450;28;1399;-65
2021/12/23 00:50:59;;;;;;;46.75;24.67;;;;;;;-3.78;71.64;99902.75;343560;28;1427;-65
2021/12/23 00:51:14;;;;;;;49.60;26.25;;;;;;;-3.75;71.65;99896.09;343327;28;1305;-65
2021/12/23 00:51:26;;;;;;;50.20;27.45;;;;;;;-3.75;71.30;99901.19;343406;28;1020;-65
2021/12/23 00:51:39;;;;;;;49.45;27.20;;;;;;;-3.73;71.63;99893.63;343431;28;1309;-65
2021/12/23 00:51:51;;;;;;;47.97;26.30;;;;;;;-3.73;71.75;99897.00;343588;28;1087;-65
2021/12/23 00:52:05;;;;;;;48.30;24.65;;;;;;;-3.72;72.52;99896.22;345644;28;1841;-65
2021/12/23 00:52:23;;;;;;;51.17;25.40;;;;;;;-3.69;72.76;99898.81;346131;28;1387;-65
2021/12/23 00:52:38;;;;;;;53.30;27.67;;;;;;;-3.64;72.79;99896.44;345807;28;5319;-65
2021/12/23 00:52:56;;;;;;;54.20;26.90;;;;;;;-3.63;73.04;99900.69;346111;28;4881;-65
2021/12/23 00:53:10;;;;;;;55.00;27.02;;;;;;;-3.62;73.31;99892.25;345338;28;5424;-65
2021/12/23 00:53:23;;;;;;;53.97;26.85;;;;;;;-3.64;74.15;99897.28;344351;28;5457;-65
2021/12/23 00:53:38;;;;;;;52.85;26.92;;;;;;;-3.65;73.93;99900.63;344926;28;1274;-65
2021/12/23 00:53:53;;;;;;;51.40;27.35;;;;;;;-3.66;73.92;99896.38;344435;28;5582;-65
2021/12/23 00:54:05;;;;;;;49.83;26.80;;;;;;;-3.65;73.84;99902.31;344574;28;5197;-65
2021/12/23 00:54:17;;;;;;;49.75;27.00;;;;;;;-3.69;74.44;99901.34;344863;28;1158;-65
2021/12/23 00:54:29;;;;;;;50.88;26.83;;;;;;;-3.67;74.42;99898.88;346067;28;1038;-65
2021/12/23 00:54:41;;;;;;;50.75;26.63;;;;;;;-3.70;74.58;99897.09;345816;28;1633;-65
2021/12/23 00:54:53;;;;;;;51.20;26.80;;;;;;;-3.73;74.66;99907.16;345551;28;2043;-65
2021/12/23 00:55:07;;;;;;;52.30;27.85;;;;;;;-3.69;74.81;99906.44;346012;28;1324;-65
2021/12/23 00:55:19;;;;;;;50.50;27.50;;;;;;;-3.68;74.68;99903.09;344999;28;2577;-65
2021/12/23 00:55:32;;;;;;;48.20;25.65;;;;;;;-3.64;74.58;99904.06;345949;28;1473;-65
2021/12/23 00:55:47;;;;;;;47.85;25.63;;;;;;;-3.66;74.47;99904.00;346124;28;1215;-65
2021/12/23 00:55:59;;;;;;;47.45;26.70;;;;;;;-3.71;74.54;99908.06;344500;28;1650;-65
2021/12/23 00:56:12;;;;;;;47.95;26.33;;;;;;;-3.70;74.81;99908.94;344058;28;2178;-65
2021/12/23 00:56:24;;;;;;;53.67;27.08;;;;;;;-3.70;74.87;99908.94;344954;28;5044;-65
2021/12/23 00:56:37;;;;;;;55.80;28.85;;;;;;;-3.75;74.84;99906.25;344091;28;1841;-65
2021/12/23 00:56:51;;;;;;;52.92;28.77;;;;;;;-3.71;75.07;99910.63;345879;28;5616;-65
2021/12/23 00:57:03;;;;;;;52.03;27.52;;;;;;;-3.68;74.69;99910.72;344908;28;5138;-65
2021/12/23 00:57:15;;;;;;;52.60;27.02;;;;;;;-3.69;75.08;99910.66;344614;28;1250;-65
2021/12/23 00:57:29;;;;;;;53.25;27.38;;;;;;;-3.66;75.02;99914.16;344782;28;1309;-65
2021/12/23 00:57:41;;;;;;;54.75;27.15;;;;;;;-3.66;75.28;99911.63;344577;28;5178;-65
2021/12/23 00:57:53;;;;;;;55.75;27.98;;;;;;;-3.68;75.56;99909.84;344747;28;1086;-65
2021/12/23 00:58:05;;;;;;;56.67;28.77;;;;;;;-3.72;75.54;99914.00;344070;28;1680;-65
2021/12/23 00:58:18;;;;;;;51.05;26.63;;;;;;;-3.68;75.33;99920.00;344372;28;1010;-65
2021/12/23 00:58:30;;;;;;;49.05;25.60;;;;;;;-3.65;75.29;99913.31;344710;28;5656;-65
2021/12/23 00:58:42;;;;;;;48.72;26.13;;;;;;;-3.62;75.25;99910.03;344800;28;1096;-65
2021/12/23 00:58:54;;;;;;;51.03;26.67;;;;;;;-3.64;75.56;99909.13;344660;28;1207;-65
2021/12/23 00:59:07;;;;;;;52.17;27.25;;;;;;;-3.62;75.39;99913.44;343532;28;1117;-65
2021/12/23 00:59:20;;;;;;;52.20;27.30;;;;;;;-3.64;75.45;99910.00;344572;28;4994;-64
2021/12/23 00:59:35;;;;;;;52.13;26.80;;;;;;;-3.61;75.37;99910.06;345034;28;1334;-65
2021/12/23 00:59:47;;;;;;;53.50;27.10;;;;;;;-3.59;75.53;99916.88;344924;28;5014;-65
2021/12/23 00:59:59;;;;;;;54.50;27.15;;;;;;;-3.63;75.88;99911.69;345461;28;1325;-65
2021/12/23 01:00:15;;;;;;;55.28;27.85;;;;;;;-3.62;75.93;99912.56;346421;28;1065;-65
2021/12/23 01:00:28;;;;;;;57.17;28.98;;;;;;;-3.63;75.78;99905.75;345391;28;5446;-65
2021/12/23 01:00:40;;;;;;;53.20;27.17;;;;;;;-3.59;75.96;99916.88;344354;28;4828;-65
2021/12/23 01:00:54;;;;;;;50.35;26.73;;;;;;;-3.61;75.57;99910.06;344891;28;1412;-65
2021/12/23 01:01:07;;;;;;;51.60;27.08;;;;;;;-3.61;75.26;99910.06;344160;28;5251;-65
2021/12/23 01:01:19;;;;;;;52.55;27.00;;;;;;;-3.58;75.27;99909.31;344908;28;5624;-65
2021/12/23 01:01:32;;;;;;;51.70;27.02;;;;;;;-3.56;74.98;99912.75;344833;28;1086;-65
2021/12/23 01:01:46;;;;;;;51.13;26.50;;;;;;;-3.55;74.69;99908.53;344774;28;4888;-65
2021/12/23 01:01:59;;;;;;;51.63;27.00;;;;;;;-3.51;74.12;99911.19;344737;28;5081;-65
2021/12/23 01:02:13;;;;;;;50.70;27.00;;;;;;;-3.54;73.89;99902.59;344690;28;5173;-65
2021/12/23 01:02:30;;;;;;;50.38;27.02;;;;;;;-3.50;73.75;99906.97;344996;28;1045;-65
2021/12/23 01:02:44;;;;;;;48.15;26.08;;;;;;;-3.52;73.21;99906.06;345057;28;1074;-65
2021/12/23 01:02:59;;;;;;;48.92;26.55;;;;;;;-3.49;73.20;99904.47;344917;28;4860;-65
2021/12/23 01:03:12;;;;;;;50.55;26.77;;;;;;;-3.51;72.53;99908.66;345072;28;1062;-65
2021/12/23 01:03:25;;;;;;;50.35;26.70;;;;;;;-3.51;72.67;99908.66;344658;28;5308;-65
2021/12/23 01:03:37;;;;;;;51.03;27.05;;;;;;;-3.52;72.54;99906.06;345027;28;1019;-65
2021/12/23 01:03:49;;;;;;;50.50;26.15;;;;;;;-3.49;72.96;99911.25;344658;28;1790;-64
2021/12/23 01:04:01;;;;;;;49.70;25.83;;;;;;;-3.46;73.44;99911.31;345199;28;1503;-65
2021/12/23 01:04:13;;;;;;;52.47;27.15;;;;;;;-3.45;73.68;99907.97;343722;28;1046;-64
2021/12/23 01:04:25;;;;;;;52.35;27.35;;;;;;;-3.45;73.93;99907.97;344428;28;2103;-64
2021/12/23 01:04:37;;;;;;;49.53;25.85;;;;;;;-3.44;73.80;99907.13;344856;28;1239;-65
2021/12/23 01:04:49;;;;;;;48.60;25.85;;;;;;;-3.44;74.10;99913.09;344998;28;1022;-65
2021/12/23 01:05:02;;;;;;;49.05;25.98;;;;;;;-3.44;74.03;99907.13;344884;28;1291;-65
2021/12/23 01:05:19;;;;;;;50.55;26.83;;;;;;;-3.43;74.82;99908.88;344092;28;5221;-65
2021/12/23 01:05:31;;;;;;;52.20;27.08;;;;;;;-3.38;74.08;99909.88;344502;28;2227;-65
2021/12/23 01:05:43;;;;;;;52.55;26.63;;;;;;;-3.40;74.25;99906.41;344795;28;1761;-65
2021/12/23 01:05:56;;;;;;;51.25;25.95;;;;;;;-3.40;74.24;99908.97;344278;28;5221;-65
2021/12/23 01:06:08;;;;;;;51.25;26.30;;;;;;;-3.37;74.40;99898.88;343867;28;4797;-65
2021/12/23 01:06:20;;;;;;;49.90;26.38;;;;;;;-3.35;74.48;99906.53;344803;28;1042;-65
2021/12/23 01:06:32;;;;;;;47.72;25.75;;;;;;;-3.34;75.02;99906.59;344910;28;1090;-65
2021/12/23 01:06:44;;;;;;;46.33;25.13;;;;;;;-3.33;74.59;99904.91;344943;28;1468;-65
2021/12/23 01:06:56;;;;;;;47.78;25.77;;;;;;;-3.31;74.42;99896.50;344975;28;1327;-65
2021/12/23 01:07:08;;;;;;;50.25;27.30;;;;;;;-3.29;74.58;99902.47;344911;28;1157;-65
2021/12/23 01:07:21;;;;;;;50.13;27.00;;;;;;;-3.27;74.29;99905.06;344857;28;1092;-65
2021/12/23 01:07:33;;;;;;;48.80;26.00;;;;;;;-3.26;74.75;99901.69;345037;28;1328;-65
2021/12/23 01:07:45;;;;;;;48.53;25.45;;;;;;;-3.24;74.65;99900.03;345246;28;1090;-65
2021/12/23 01:07:57;;;;;;;50.03;25.77;;;;;;;-3.24;74.48;99905.13;344446;28;1915;-65
2021/12/23 01:08:09;;;;;;;49.42;25.67;;;;;;;-3.23;74.36;99904.31;345011;28;1026;-65